Time;durP1;ratioP1;P1;durP2;ratioP2;P2;SDS_P1;SDS_P2;PMS_P1;PMS_P2;Temp;Humidity;BMP_temperature;BMP_pressure;BME280_temperature;BME280_humidity;BME280_pressure;Samples;Min_cycle;Max_cycle;Signal;HPM_P1;HPM_P2
2023/02/16 00:00:49;;;;;;;62.03;34.00;;;;;;;6.73;100.00;101991.28;5079231;28;20027;-69
2023/02/16 00:03:19;;;;;;;68.55;34.65;;;;;;;6.56;100.00;101990.41;5076933;28;20754;-69
2023/02/16 00:05:45;;;;;;;68.43;34.55;;;;;;;6.69;100.00;101991.94;5079642;28;20051;-69
2023/02/16 00:08:11;;;;;;;69.95;36.35;;;;;;;6.70;100.00;101992.81;5080048;28;20028;-70
2023/02/16 00:10:37;;;;;;;64.28;34.45;;;;;;;6.81;100.00;101996.00;5079097;28;20456;-70
2023/02/16 00:13:43;;;;;;;67.38;34.55;;;;;;;6.82;100.00;101982.09;5077012;28;20024;-70
2023/02/16 00:16:17;;;;;;;74.32;35.35;;;;;;;6.60;100.00;101988.84;5087920;28;20084;-70
2023/02/16 00:18:43;;;;;;;71.57;35.33;;;;;;;6.72;100.00;101985.97;5086289;28;20514;-69
2023/02/16 00:21:08;;;;;;;73.30;37.22;;;;;;;6.75;100.00;101987.03;5092078;28;20023;-70
2023/02/16 00:23:34;;;;;;;68.25;34.80;;;;;;;6.69;100.00;101985.81;5091375;28;20020;-71
2023/02/16 00:25:59;;;;;;;71.85;35.22;;;;;;;6.63;100.00;101986.38;5079416;28;20523;-69
2023/02/16 00:28:24;;;;;;;74.32;35.70;;;;;;;6.70;100.00;101983.28;5077156;28;20032;-73
2023/02/16 00:30:50;;;;;;;72.00;35.70;;;;;;;6.69;100.00;101978.88;5075287;28;20035;-69
2023/02/16 00:33:18;;;;;;;67.93;34.85;;;;;;;6.65;100.00;101986.50;5077557;28;20024;-70
2023/02/16 00:35:43;;;;;;;76.60;35.90;;;;;;;6.61;100.00;101985.44;5089118;28;21628;-70
2023/02/16 00:38:09;;;;;;;70.57;35.72;;;;;;;6.57;100.00;101983.47;5077782;28;20028;-71
2023/02/16 00:40:35;;;;;;;70.78;36.80;;;;;;;6.65;100.00;101978.66;5077765;28;20372;-71
2023/02/16 00:43:00;;;;;;;66.55;34.97;;;;;;;6.54;100.00;101980.72;5086625;28;20027;-69
2023/02/16 00:45:26;;;;;;;68.55;35.72;;;;;;;6.51;100.00;101975.31;5078248;28;20112;-71
2023/02/16 00:47:53;;;;;;;74.07;35.80;;;;;;;6.64;100.00;101971.59;5081366;28;20073;-70
2023/02/16 00:50:23;;;;;;;71.85;35.22;;;;;;;6.67;100.00;101971.75;5073518;28;20028;-70
2023/02/16 00:52:49;;;;;;;77.75;35.33;;;;;;;6.68;100.00;101971.81;5075290;28;20591;-70
2023/02/16 00:55:18;;;;;;;63.45;33.78;;;;;;;6.71;100.00;101971.09;5077668;28;20051;-69
2023/02/16 00:57:48;;;;;;;73.10;36.20;;;;;;;6.76;100.00;101972.22;5076126;28;20028;-72
2023/02/16 01:00:20;;;;;;;67.05;34.75;;;;;;;6.81;100.00;101975.97;5078989;28;20028;-72
2023/02/16 01:02:47;;;;;;;69.03;36.25;;;;;;;6.79;100.00;101972.38;5079776;28;20059;-69
2023/02/16 01:05:13;;;;;;;72.32;36.38;;;;;;;6.75;100.00;101966.09;5073732;28;20421;-70
2023/02/16 01:13:09;;;;;;;60.63;33.15;;;;;;;6.65;100.00;101961.22;5077401;28;20450;-70
2023/02/16 01:15:35;;;;;;;68.20;34.75;;;;;;;6.78;100.00;101961.84;5078017;28;20031;-69
2023/02/16 01:18:00;;;;;;;67.68;35.90;;;;;;;6.64;100.00;101967.25;5081751;28;20505;-69
2023/02/16 01:20:26;;;;;;;73.18;35.25;;;;;;;6.75;100.00;101966.09;5079227;28;20036;-70
2023/02/16 01:22:52;;;;;;;71.63;36.58;;;;;;;6.69;100.00;101964.91;5081047;28;20064;-71
2023/02/16 01:25:17;;;;;;;68.22;34.88;;;;;;;6.55;100.00;101962.47;5082565;28;20113;-69
2023/02/16 01:27:43;;;;;;;69.47;36.20;;;;;;;6.55;100.00;101962.47;5078236;28;20094;-69
2023/02/16 01:30:15;;;;;;;69.05;36.72;;;;;;;6.59;100.00;101958.28;5080450;28;20077;-70
2023/02/16 01:32:40;;;;;;;71.35;35.30;;;;;;;6.56;100.00;101963.38;5081200;28;20138;-71
2023/02/16 01:35:06;;;;;;;69.40;35.88;;;;;;;6.55;100.00;101962.47;5079909;28;20035;-68
2023/02/16 01:37:31;;;;;;;70.70;36.63;;;;;;;6.52;100.00;101958.81;5080564;28;20038;-70
2023/02/16 01:39:56;;;;;;;68.88;35.97;;;;;;;6.55;100.00;101956.34;5079547;28;20024;-71
2023/02/16 01:42:30;;;;;;;71.18;35.85;;;;;;;6.49;100.00;101956.03;5077005;28;20060;-69
2023/02/16 01:44:58;;;;;;;75.50;35.70;;;;;;;6.56;100.00;101955.53;5076941;28;20032;-70
2023/02/16 01:47:35;;;;;;;68.03;35.22;;;;;;;6.53;100.00;101963.22;5083207;28;20032;-71
2023/02/16 01:50:14;;;;;;;77.28;35.83;;;;;;;6.41;100.00;101953.91;5080089;28;20035;-70
2023/02/16 01:53:11;;;;;;;63.90;34.70;;;;;;;6.51;100.00;101954.38;5076723;28;20787;-71
2023/02/16 01:55:45;;;;;;;66.28;35.33;;;;;;;6.54;100.00;101951.94;5077345;28;20034;-70
2023/02/16 01:58:34;;;;;;;69.47;35.35;;;;;;;6.57;100.00;101950.34;5083156;28;20039;-70
2023/02/16 02:00:59;;;;;;;68.80;34.53;;;;;;;6.50;100.00;101948.25;5077133;28;20077;-70
2023/02/16 02:06:14;;;;;;;67.80;34.83;;;;;;;6.39;100.00;101950.31;5079835;28;20062;-69
2023/02/16 02:09:02;;;;;;;64.70;33.88;;;;;;;6.30;100.00;101947.25;5079681;28;20380;-71
2023/02/16 02:11:35;;;;;;;67.47;33.85;;;;;;;6.39;100.00;101947.72;5078754;28;20043;-70
2023/02/16 02:14:06;;;;;;;63.15;33.55;;;;;;;6.38;100.00;101940.69;5079198;28;21324;-70
2023/02/16 02:16:32;;;;;;;71.18;35.42;;;;;;;6.41;100.00;101945.19;5078801;28;20451;-69
2023/02/16 02:18:57;;;;;;;63.95;34.20;;;;;;;6.46;100.00;101934.94;5079487;28;20115;-69
2023/02/16 02:24:50;;;;;;;69.97;35.55;;;;;;;6.45;100.00;101939.28;5077955;28;20074;-71
2023/02/16 02:27:24;;;;;;;68.90;34.38;;;;;;;6.45;100.00;101933.16;5084086;28;20070;-69
2023/02/16 02:30:17;;;;;;;72.32;35.75;;;;;;;6.56;100.00;101927.63;5083934;28;20031;-70
2023/02/16 02:33:01;;;;;;;68.00;35.15;;;;;;;6.55;100.00;101914.50;5078528;28;20031;-70
2023/02/16 02:35:57;;;;;;;69.22;35.08;;;;;;;6.55;100.00;101898.81;5085263;28;20031;-70
2023/02/16 02:39:02;;;;;;;68.88;35.78;;;;;;;6.50;100.00;101902.94;5084224;28;20110;-71
2023/02/16 02:42:03;;;;;;;68.78;35.20;;;;;;;6.40;100.00;101905.06;5083118;28;20107;-70
2023/02/16 02:44:29;;;;;;;65.05;33.85;;;;;;;6.53;100.00;101900.47;5083505;28;20118;-70
2023/02/16 02:46:54;;;;;;;65.82;34.70;;;;;;;6.48;100.00;101905.44;5077972;28;20157;-71
2023/02/16 02:49:20;;;;;;;65.72;34.45;;;;;;;6.51;100.00;101897.78;5082270;28;21309;-70
2023/02/16 02:51:47;;;;;;;60.28;32.42;;;;;;;6.56;100.00;101893.63;5085272;28;20020;-70
2023/02/16 03:03:03;;;;;;;67.75;33.90;;;;;;;6.62;100.00;101893.06;5084736;28;20092;-71
2023/02/16 03:05:32;;;;;;;62.88;33.85;;;;;;;6.51;100.00;101887.31;5079469;28;20048;-69
2023/02/16 03:08:05;;;;;;;63.42;33.50;;;;;;;6.55;100.00;101896.19;5084033;28;20028;-70
2023/02/16 03:13:26;;;;;;;61.88;30.95;;;;;;;6.75;100.00;101887.63;5080376;28;20051;-70
2023/02/16 03:15:54;;;;;;;60.50;32.28;;;;;;;6.69;100.00;101887.31;5083686;28;20392;-70
2023/02/16 03:29:30;;;;;;;63.92;32.03;;;;;;;6.61;100.00;101886.03;5079438;28;20133;-70
2023/02/16 03:31:56;;;;;;;61.78;31.75;;;;;;;6.77;100.00;101894.63;5082141;28;20020;-71
2023/02/16 03:34:23;;;;;;;63.30;31.75;;;;;;;6.75;100.00;101894.56;5079091;28;20380;-70
2023/02/16 03:36:51;;;;;;;62.38;32.35;;;;;;;6.70;100.00;101893.44;5080698;28;20038;-70
2023/02/16 03:39:18;;;;;;;64.15;32.45;;;;;;;6.79;100.00;101895.63;5080697;28;20016;-69
2023/02/16 03:41:50;;;;;;;60.45;32.53;;;;;;;6.77;100.00;101897.25;5084499;28;20166;-70
2023/02/16 03:44:16;;;;;;;58.63;32.65;;;;;;;6.74;100.00;101891.06;5081135;28;20027;-70
2023/02/16 03:46:42;;;;;;;61.92;32.33;;;;;;;6.71;100.00;101883.03;5082952;28;20027;-69
2023/02/16 03:49:07;;;;;;;62.58;32.40;;;;;;;6.75;100.00;101879.78;5081561;28;20427;-69
2023/02/16 03:51:33;;;;;;;60.40;32.20;;;;;;;6.77;100.00;101879.84;5082548;28;20119;-69
2023/02/16 03:53:58;;;;;;;59.72;29.50;;;;;;;6.78;100.00;101876.38;5080911;28;20069;-69
2023/02/16 03:56:23;;;;;;;58.78;31.00;;;;;;;6.71;100.00;101871.69;5082009;28;20024;-68
2023/02/16 03:58:49;;;;;;;61.60;30.98;;;;;;;6.89;100.00;101872.59;5085135;28;20455;-69
2023/02/16 04:01:14;;;;;;;57.80;31.23;;;;;;;6.82;100.00;101877.44;5080629;28;20391;-68
2023/02/16 04:03:39;;;;;;;53.78;29.63;;;;;;;6.79;100.00;101874.69;5077981;28;20024;-71
2023/02/16 04:06:05;;;;;;;59.88;31.50;;;;;;;6.84;100.00;101883.66;5080308;28;20737;-70
2023/02/16 04:08:31;;;;;;;59.90;30.15;;;;;;;6.79;100.00;101879.94;5078894;28;20570;-69
2023/02/16 04:10:56;;;;;;;60.58;32.08;;;;;;;6.90;100.00;101886.56;5079313;28;20089;-72
2023/02/16 04:13:23;;;;;;;52.58;31.05;;;;;;;6.80;100.00;101884.34;5083688;28;20039;-70
2023/02/16 04:15:48;;;;;;;59.80;30.55;;;;;;;6.83;100.00;101894.94;5076289;28;20427;-70
2023/02/16 04:18:14;;;;;;;60.78;30.90;;;;;;;6.85;100.00;101896.81;5078930;28;20106;-69
2023/02/16 04:20:39;;;;;;;57.03;30.88;;;;;;;6.94;100.00;101895.47;5082680;28;20162;-70
2023/02/16 04:23:05;;;;;;;59.03;31.33;;;;;;;6.89;100.00;101890.91;5078018;28;20048;-69
2023/02/16 04:25:30;;;;;;;55.50;31.00;;;;;;;6.89;100.00;101890.91;5084856;28;20240;-69
2023/02/16 04:27:56;;;;;;;58.75;30.63;;;;;;;6.97;100.00;101890.38;5092419;28;20089;-70
2023/02/16 04:30:28;;;;;;;55.72;29.67;;;;;;;7.06;100.00;101888.22;5092274;28;20042;-69
2023/02/16 04:32:54;;;;;;;55.15;29.77;;;;;;;6.92;100.00;101885.81;5094133;28;20026;-71
2023/02/16 04:35:20;;;;;;;57.20;31.02;;;;;;;6.97;100.00;101879.91;5086556;28;20103;-69
2023/02/16 04:37:46;;;;;;;56.92;30.38;;;;;;;7.01;100.00;101879.22;5099519;28;20031;-70
2023/02/16 04:40:14;;;;;;;59.20;29.98;;;;;;;7.00;100.00;101880.97;5087023;28;20028;-68
2023/02/16 04:42:41;;;;;;;63.00;31.33;;;;;;;6.98;100.00;101882.59;5084586;28;20381;-69
2023/02/16 04:45:07;;;;;;;54.72;28.48;;;;;;;6.96;100.00;101884.25;5084681;28;20387;-70
2023/02/16 04:47:33;;;;;;;56.45;29.73;;;;;;;6.94;100.00;101885.00;5089122;28;20027;-69
2023/02/16 04:49:58;;;;;;;64.57;31.10;;;;;;;7.01;100.00;101877.53;5076100;28;20050;-69
2023/02/16 04:52:23;;;;;;;64.10;29.83;;;;;;;7.10;100.00;101874.44;5089282;28;20028;-69
2023/02/16 04:54:49;;;;;;;53.88;27.77;;;;;;;7.17;100.00;101870.38;5090283;28;20522;-68
2023/02/16 04:57:15;;;;;;;57.13;30.02;;;;;;;7.04;100.00;101866.28;5091354;28;20064;-70
2023/02/16 04:59:40;;;;;;;53.40;29.48;;;;;;;7.05;100.00;101861.16;5111222;28;20031;-69
2023/02/16 05:02:06;;;;;;;58.22;31.30;;;;;;;7.11;100.00;101859.63;5082559;28;20051;-71
2023/02/16 05:04:31;;;;;;;56.78;29.60;;;;;;;7.12;100.00;101861.41;5092250;28;20031;-69
2023/02/16 05:06:56;;;;;;;51.92;28.80;;;;;;;7.04;100.00;101856.72;5089697;28;20020;-69
2023/02/16 05:09:22;;;;;;;53.38;29.50;;;;;;;7.09;100.00;101865.69;5087423;28;20468;-70
2023/02/16 05:14:45;;;;;;;54.60;27.88;;;;;;;6.90;100.00;101865.63;5096299;28;20039;-69
2023/02/16 05:17:20;;;;;;;61.78;30.45;;;;;;;7.05;100.00;101866.38;5084388;28;20490;-70
2023/02/16 05:19:48;;;;;;;57.35;29.45;;;;;;;7.12;100.00;101866.66;5072474;28;20086;-69
2023/02/16 05:22:14;;;;;;;52.63;28.67;;;;;;;7.11;100.00;101860.53;5090933;28;20031;-69
2023/02/16 05:24:40;;;;;;;55.97;29.63;;;;;;;7.17;100.00;101863.44;5075660;28;20059;-69
2023/02/16 05:27:10;;;;;;;60.28;30.58;;;;;;;7.14;100.00;101859.78;5102758;28;20059;-71
2023/02/16 05:29:35;;;;;;;55.83;30.17;;;;;;;7.22;100.00;101868.91;5094408;28;20020;-70
2023/02/16 05:32:01;;;;;;;50.25;28.45;;;;;;;7.15;100.00;101866.78;5086978;28;20497;-70
2023/02/16 05:34:26;;;;;;;59.42;30.23;;;;;;;7.19;100.00;101866.09;5092544;28;20057;-69
2023/02/16 05:36:52;;;;;;;56.65;30.58;;;;;;;7.23;100.00;101862.81;5085407;28;20039;-69
2023/02/16 05:39:17;;;;;;;59.75;30.00;;;;;;;7.15;100.00;101857.25;5086127;28;20020;-70
2023/02/16 05:41:43;;;;;;;61.53;30.38;;;;;;;7.15;100.00;101865.09;5084263;28;20028;-70
2023/02/16 05:44:09;;;;;;;53.22;30.00;;;;;;;7.18;100.00;101862.59;5084916;28;20028;-70
2023/02/16 05:46:37;;;;;;;64.75;32.30;;;;;;;7.23;100.00;101854.97;5086812;28;20036;-71
2023/02/16 05:49:04;;;;;;;58.88;30.15;;;;;;;7.21;100.00;101857.50;5091896;28;20483;-69
2023/02/16 05:51:30;;;;;;;60.70;31.33;;;;;;;7.22;100.00;101853.19;5086038;28;20059;-69
2023/02/16 05:53:56;;;;;;;52.85;29.02;;;;;;;7.19;100.00;101837.31;5089368;28;20049;-70
2023/02/16 05:56:22;;;;;;;57.70;31.52;;;;;;;7.16;100.00;101855.50;5087021;28;20089;-70
2023/02/16 05:58:47;;;;;;;60.63;31.73;;;;;;;7.09;100.00;101857.84;5079259;28;20078;-69
2023/02/16 06:01:13;;;;;;;58.38;31.17;;;;;;;7.05;100.00;101855.91;5090626;28;20411;-70
2023/02/16 06:03:39;;;;;;;62.88;32.00;;;;;;;7.12;100.00;101861.41;5116173;28;20505;-68
2023/02/16 06:06:05;;;;;;;58.17;30.95;;;;;;;7.03;100.00;101857.53;5103144;28;20052;-69
2023/02/16 06:08:32;;;;;;;59.65;31.02;;;;;;;6.90;100.00;101855.16;5096910;28;20028;-69
2023/02/16 06:10:57;;;;;;;63.17;32.95;;;;;;;6.94;100.00;101859.72;5091697;28;20028;-68
2023/02/16 06:13:23;;;;;;;65.22;32.92;;;;;;;6.94;100.00;101851.88;5087292;28;20030;-69
2023/02/16 06:15:55;;;;;;;61.28;32.35;;;;;;;6.96;100.00;101859.78;5085956;28;20016;-68
2023/02/16 06:18:21;;;;;;;66.13;32.30;;;;;;;6.87;100.00;101866.38;5101246;28;20035;-69
2023/02/16 06:20:47;;;;;;;64.18;32.92;;;;;;;6.91;100.00;101875.28;5089572;28;20020;-69
2023/02/16 06:23:13;;;;;;;64.90;33.08;;;;;;;6.83;100.00;101871.41;5087052;28;20032;-69
2023/02/16 06:25:42;;;;;;;63.97;31.85;;;;;;;6.85;100.00;101856.66;5090326;28;20062;-69
2023/02/16 06:28:08;;;;;;;61.70;31.08;;;;;;;6.86;100.00;101867.22;5092417;28;20058;-70
2023/02/16 06:30:34;;;;;;;64.40;33.20;;;;;;;6.87;100.00;101870.72;5094817;28;20432;-71
2023/02/16 06:33:01;;;;;;;64.85;34.15;;;;;;;6.85;100.00;101870.66;5094961;28;20020;-72
2023/02/16 06:35:27;;;;;;;59.95;33.25;;;;;;;6.91;100.00;101870.06;5095475;28;20398;-72
2023/02/16 06:37:52;;;;;;;63.28;32.97;;;;;;;6.87;100.00;101876.84;5094022;28;20077;-71
2023/02/16 06:40:18;;;;;;;68.13;34.05;;;;;;;6.79;100.00;101872.06;5090040;28;20133;-70
2023/02/16 06:42:44;;;;;;;61.72;32.67;;;;;;;6.78;100.00;101876.38;5082940;28;20514;-71
2023/02/16 06:45:09;;;;;;;71.78;33.70;;;;;;;6.82;100.00;101882.69;5090274;28;20024;-69
2023/02/16 06:47:36;;;;;;;69.68;33.53;;;;;;;6.89;100.00;101880.44;5092700;28;20039;-69
2023/02/16 06:50:03;;;;;;;59.38;32.90;;;;;;;6.96;100.00;101879.03;5077348;28;20036;-69
2023/02/16 06:52:28;;;;;;;64.43;33.72;;;;;;;7.04;100.00;101880.28;5076268;28;20563;-69
2023/02/16 06:54:53;;;;;;;68.22;34.03;;;;;;;6.97;100.00;101886.03;5093610;28;20110;-71
2023/02/16 06:57:19;;;;;;;63.10;33.95;;;;;;;6.96;100.00;101886.88;5087471;28;20162;-69
2023/02/16 06:59:44;;;;;;;60.33;33.75;;;;;;;6.97;100.00;101887.75;5089130;28;20464;-70
2023/02/16 07:02:09;;;;;;;63.53;34.00;;;;;;;7.07;100.00;101888.28;5092645;28;20102;-72
2023/02/16 07:04:35;;;;;;;62.78;33.25;;;;;;;6.83;100.00;101890.59;5091794;28;20150;-70
2023/02/16 07:07:01;;;;;;;64.75;34.22;;;;;;;6.89;100.00;101895.22;5093162;28;20031;-70
2023/02/16 07:09:26;;;;;;;64.45;33.97;;;;;;;6.94;100.00;101895.47;5092135;28;20035;-69
2023/02/16 07:11:51;;;;;;;64.45;33.83;;;;;;;7.03;100.00;101904.66;5090654;28;20520;-71
2023/02/16 07:14:17;;;;;;;61.13;32.33;;;;;;;7.14;100.00;101896.44;5087220;28;20050;-71
2023/02/16 07:16:42;;;;;;;64.90;34.28;;;;;;;7.16;100.00;101892.16;5088802;28;20474;-69
2023/02/16 07:19:08;;;;;;;67.47;32.03;;;;;;;7.17;100.00;101892.22;5083903;28;20023;-70
2023/02/16 07:21:33;;;;;;;59.10;32.70;;;;;;;7.24;100.00;101893.41;5074414;28;20037;-69
2023/02/16 07:23:59;;;;;;;61.40;32.95;;;;;;;7.16;100.00;101894.75;5087198;28;20035;-71
2023/02/16 07:26:24;;;;;;;68.18;31.98;;;;;;;7.22;100.00;101895.06;5092258;28;20469;-70
2023/02/16 07:28:50;;;;;;;56.00;30.80;;;;;;;7.19;100.00;101902.75;5088757;28;20466;-69
2023/02/16 07:31:16;;;;;;;62.08;32.42;;;;;;;7.24;100.00;101915.25;5086342;28;20440;-70
2023/02/16 07:33:42;;;;;;;63.53;33.00;;;;;;;7.16;100.00;101906.16;5085184;28;20028;-70
2023/02/16 07:36:09;;;;;;;54.55;31.05;;;;;;;7.24;100.00;101909.13;5092893;28;20103;-71
2023/02/16 07:38:35;;;;;;;60.22;31.80;;;;;;;7.38;100.00;101907.13;5079962;28;20039;-70
2023/02/16 07:41:00;;;;;;;62.47;33.22;;;;;;;7.28;100.00;101913.66;5080713;28;20384;-70
2023/02/16 07:43:26;;;;;;;60.75;30.65;;;;;;;7.21;100.00;101927.31;5091178;28;20024;-70
2023/02/16 07:45:52;;;;;;;59.53;32.42;;;;;;;7.35;100.00;101923.63;5091314;28;20090;-70
2023/02/16 07:48:18;;;;;;;61.15;32.40;;;;;;;7.34;100.00;101924.44;5088129;28;20024;-69
2023/02/16 07:50:43;;;;;;;59.03;32.97;;;;;;;7.34;100.00;101926.16;5084100;28;20108;-70
2023/02/16 07:53:08;;;;;;;56.83;31.30;;;;;;;7.41;100.00;101928.25;5089748;28;20036;-72
2023/02/16 07:55:39;;;;;;;60.42;32.53;;;;;;;7.34;100.00;101934.91;5097824;28;20024;-70
2023/02/16 07:58:05;;;;;;;62.78;32.10;;;;;;;7.41;100.00;101939.59;5087320;28;20031;-71
2023/02/16 08:00:30;;;;;;;57.97;30.35;;;;;;;7.32;100.00;101947.03;5095715;28;20020;-71
2023/02/16 08:02:56;;;;;;;59.88;31.85;;;;;;;7.47;100.00;101943.34;5097739;28;20092;-70
2023/02/16 08:05:23;;;;;;;61.33;33.33;;;;;;;7.33;100.00;101940.09;5080625;28;20059;-71
2023/02/16 08:07:48;;;;;;;65.90;33.10;;;;;;;7.32;100.00;101946.13;5093404;28;20150;-72
2023/02/16 08:10:14;;;;;;;61.75;35.42;;;;;;;7.24;100.00;101941.44;5105206;28;20106;-70
2023/02/16 08:12:40;;;;;;;65.50;34.67;;;;;;;7.11;100.00;101949.53;5094040;28;20039;-70
2023/02/16 08:15:05;;;;;;;65.40;34.80;;;;;;;7.07;100.00;101940.63;5091180;28;20437;-69
2023/02/16 08:17:31;;;;;;;73.85;37.00;;;;;;;7.05;100.00;101947.50;5094692;28;20043;-70
2023/02/16 08:19:56;;;;;;;68.70;34.97;;;;;;;6.84;100.00;101947.34;5084548;28;20116;-70
2023/02/16 08:22:22;;;;;;;70.82;36.13;;;;;;;6.99;100.00;101952.44;5091584;28;20024;-70
2023/02/16 08:24:48;;;;;;;72.95;38.47;;;;;;;6.92;100.00;101952.97;5092549;28;20099;-69
2023/02/16 08:27:13;;;;;;;73.85;38.35;;;;;;;6.83;100.00;101955.13;5092533;28;20583;-70
2023/02/16 08:29:38;;;;;;;67.05;37.22;;;;;;;6.87;100.00;101943.97;5086435;28;20045;-71
2023/02/16 08:32:06;;;;;;;73.80;39.50;;;;;;;6.85;100.00;101956.06;5084145;28;20035;-70
2023/02/16 08:34:37;;;;;;;81.65;36.50;;;;;;;6.72;100.00;101955.47;5092066;28;20023;-70
2023/02/16 08:37:03;;;;;;;72.90;38.53;;;;;;;6.66;100.00;101955.19;5093509;28;20109;-72
2023/02/16 08:39:31;;;;;;;73.25;39.75;;;;;;;6.68;100.00;101957.88;5093142;28;20062;-70
2023/02/16 08:41:58;;;;;;;71.53;40.30;;;;;;;6.71;100.00;101953.66;5092761;28;20500;-71
2023/02/16 08:44:24;;;;;;;71.55;38.65;;;;;;;6.71;100.00;101948.44;5092534;28;20664;-71
2023/02/16 08:46:52;;;;;;;75.43;39.60;;;;;;;6.71;100.00;101950.16;5085706;28;20403;-69
2023/02/16 08:49:20;;;;;;;75.95;40.50;;;;;;;6.85;100.00;101948.22;5092179;28;20536;-71
2023/02/16 08:51:49;;;;;;;76.35;41.70;;;;;;;6.78;100.00;101940.91;5081455;28;20029;-71
2023/02/16 08:54:19;;;;;;;79.68;39.72;;;;;;;6.74;100.00;101932.91;5082969;28;20029;-71
2023/02/16 08:56:46;;;;;;;81.68;42.05;;;;;;;7.00;100.00;101935.91;5090276;28;20118;-71
2023/02/16 08:59:14;;;;;;;87.35;42.97;;;;;;;6.96;100.00;101938.28;5091881;28;20036;-71
2023/02/16 09:01:40;;;;;;;79.55;41.75;;;;;;;6.97;100.00;101938.38;5090591;28;20084;-70
2023/02/16 09:04:06;;;;;;;78.50;41.97;;;;;;;7.06;100.00;101941.44;5089403;28;20024;-69
2023/02/16 09:06:34;;;;;;;81.68;41.65;;;;;;;7.19;100.00;101937.72;5093333;28;20548;-72
2023/02/16 09:09:00;;;;;;;72.70;39.90;;;;;;;7.12;100.00;101934.72;5091452;28;20031;-69
2023/02/16 09:11:25;;;;;;;83.20;40.63;;;;;;;7.06;100.00;101941.44;5093229;28;20119;-70
2023/02/16 09:13:52;;;;;;;74.47;42.67;;;;;;;6.91;100.00;101932.84;5091933;28;20523;-71
2023/02/16 09:16:21;;;;;;;73.35;40.40;;;;;;;7.08;100.00;101939.81;5091857;28;20027;-71
2023/02/16 09:18:47;;;;;;;86.07;42.75;;;;;;;7.13;100.00;101949.59;5092020;28;20107;-70
2023/02/16 09:21:19;;;;;;;80.40;41.42;;;;;;;7.13;100.00;101952.22;5091129;28;20152;-71
2023/02/16 09:23:47;;;;;;;78.15;41.80;;;;;;;7.11;100.00;101956.47;5084845;28;20020;-71
2023/02/16 09:26:14;;;;;;;76.22;42.22;;;;;;;7.19;100.00;101948.19;5091542;28;20035;-71
2023/02/16 09:28:40;;;;;;;86.82;43.70;;;;;;;7.34;100.00;101941.84;5089955;28;20031;-71
2023/02/16 09:31:27;;;;;;;79.63;41.58;;;;;;;7.27;100.00;101930.22;5088780;28;20021;-70
2023/02/16 09:34:22;;;;;;;77.18;41.65;;;;;;;7.32;100.00;101933.06;5088941;28;20108;-71
2023/02/16 09:36:48;;;;;;;80.35;41.60;;;;;;;7.46;100.00;101932.00;5072430;28;20401;-71
2023/02/16 09:39:15;;;;;;;83.70;42.92;;;;;;;7.59;100.00;101929.09;5072348;28;20522;-70
2023/02/16 09:42:07;;;;;;;79.97;43.10;;;;;;;7.85;100.00;101934.63;5082489;28;20020;-70
2023/02/16 09:44:32;;;;;;;75.55;42.28;;;;;;;8.04;100.00;101923.25;5073973;28;20122;-72
2023/02/16 09:47:02;;;;;;;74.50;38.58;;;;;;;8.12;100.00;101925.31;5091981;28;20178;-69
2023/02/16 09:49:35;;;;;;;70.15;39.88;;;;;;;8.11;100.00;101924.41;5090716;28;20036;-70
2023/02/16 09:52:03;;;;;;;;;;;;;;;8.23;100.00;101924.97;5087772;28;20471;-71
2023/02/16 09:54:40;;;;;;;71.30;39.03;;;;;;;8.34;100.00;101928.06;5091361;28;20288;-70
2023/02/16 09:57:21;;;;;;;74.13;41.78;;;;;;;8.23;100.00;101924.97;5093146;28;20058;-71
2023/02/16 09:59:56;;;;;;;78.10;40.03;;;;;;;8.35;100.00;101935.06;5089607;28;20053;-72
2023/02/16 10:02:37;;;;;;;68.93;39.20;;;;;;;8.20;100.00;101937.03;5082693;28;20036;-71
2023/02/16 10:05:11;;;;;;;69.03;39.28;;;;;;;8.18;100.00;101934.34;5090671;28;20051;-72
2023/02/16 10:07:50;;;;;;;73.10;40.00;;;;;;;8.13;100.00;101932.38;5073272;28;20036;-72
2023/02/16 10:10:21;;;;;;;71.45;40.92;;;;;;;8.09;100.00;101924.34;5079387;28;20063;-73
2023/02/16 10:12:53;;;;;;;77.45;40.90;;;;;;;8.16;100.00;101922.00;5094254;28;20102;-71
2023/02/16 10:15:26;;;;;;;71.88;40.53;;;;;;;8.37;100.00;101925.56;5095253;28;20089;-72
2023/02/16 10:17:57;;;;;;;71.53;42.10;;;;;;;8.44;100.00;101921.47;5088359;28;20047;-71
2023/02/16 10:20:31;;;;;;;70.07;39.35;;;;;;;8.59;100.00;101910.78;5077531;28;20122;-71
2023/02/16 10:23:27;;;;;;;74.15;40.22;;;;;;;8.67;100.00;101916.31;5089023;28;20092;-72
2023/02/16 10:26:00;;;;;;;70.70;40.22;;;;;;;8.84;100.00;101914.41;5084782;28;20026;-70
2023/02/16 10:28:45;;;;;;;71.55;39.00;;;;;;;8.96;100.00;101922.78;5083388;28;20740;-70
2023/02/16 10:31:18;;;;;;;72.95;39.13;;;;;;;8.73;100.00;101914.84;5098726;28;20039;-72
2023/02/16 10:33:59;;;;;;;76.63;38.88;;;;;;;8.92;100.00;101912.97;5089902;28;20147;-71
2023/02/16 10:36:39;;;;;;;68.40;38.00;;;;;;;9.07;100.00;101908.34;5086899;28;20088;-72
2023/02/16 10:39:08;;;;;;;73.57;41.50;;;;;;;9.18;100.00;101911.38;5088528;28;20090;-70
2023/02/16 10:41:43;;;;;;;67.00;37.95;;;;;;;9.21;100.00;101915.88;5089013;28;20412;-71
2023/02/16 10:44:20;;;;;;;69.97;37.72;;;;;;;9.24;100.00;101916.00;5092140;28;20059;-71
2023/02/16 10:46:55;;;;;;;67.78;38.00;;;;;;;9.10;100.00;101916.34;5084983;28;20043;-71
2023/02/16 10:49:22;;;;;;;65.45;37.58;;;;;;;9.30;100.00;101916.22;5101665;28;20485;-71
2023/02/16 10:51:50;;;;;;;71.45;39.63;;;;;;;9.17;100.00;101930.63;5107717;27;20102;-70
2023/02/16 10:54:21;;;;;;;68.55;37.20;;;;;;;9.41;100.00;101932.41;5103608;28;20483;-70
2023/02/16 10:56:52;;;;;;;70.35;36.53;;;;;;;9.25;100.00;101929.19;5098540;28;20391;-71
2023/02/16 10:59:21;;;;;;;63.47;37.67;;;;;;;9.28;100.00;101926.69;5098632;28;20020;-72
2023/02/16 11:01:52;;;;;;;63.78;37.45;;;;;;;9.28;100.00;101923.19;5100323;28;20036;-71
2023/02/16 11:04:30;;;;;;;70.25;37.08;;;;;;;9.41;100.00;101914.94;5091891;28;20162;-71
2023/02/16 11:07:07;;;;;;;68.95;36.45;;;;;;;9.50;100.00;101913.50;5095959;28;20028;-70
2023/02/16 11:09:33;;;;;;;72.13;39.00;;;;;;;9.65;100.00;101919.31;5091289;28;20131;-71
2023/02/16 11:11:58;;;;;;;71.70;38.35;;;;;;;9.65;100.00;101908.81;5088113;28;20530;-71
2023/02/16 11:14:29;;;;;;;67.85;37.85;;;;;;;9.73;100.00;101914.38;5093236;28;20028;-72
2023/02/16 11:17:11;;;;;;;69.13;38.50;;;;;;;9.85;100.00;101911.28;5093819;28;20055;-72
2023/02/16 11:19:39;;;;;;;66.90;36.70;;;;;;;9.95;100.00;101902.88;5095458;28;20024;-71
2023/02/16 11:22:22;;;;;;;72.10;36.58;;;;;;;10.23;100.00;101898.63;5092395;28;20159;-70
2023/02/16 11:24:47;;;;;;;65.63;38.03;;;;;;;10.45;100.00;101895.91;5086308;28;20028;-71
2023/02/16 11:27:12;;;;;;;64.13;36.33;;;;;;;10.51;100.00;101897.84;5095410;28;20019;-71
2023/02/16 11:29:39;;;;;;;67.25;36.33;;;;;;;10.53;100.00;101897.94;5092648;28;20153;-71
2023/02/16 11:32:07;;;;;;;57.53;31.90;;;;;;;10.51;100.00;101889.06;5091554;28;20020;-70
2023/02/16 11:34:35;;;;;;;54.40;31.85;;;;;;;10.79;100.00;101897.03;5105942;27;20387;-71
2023/02/16 11:37:33;;;;;;;48.13;30.27;;;;;;;10.84;100.00;101896.28;5098557;28;20391;-71
2023/02/16 11:40:05;;;;;;;47.15;28.63;;;;;;;11.14;100.00;101891.13;5091760;28;20020;-70
2023/02/16 11:42:39;;;;;;;48.95;27.55;;;;;;;10.92;100.00;101877.28;5097196;28;20474;-70
2023/02/16 11:45:07;;;;;;;45.20;26.13;;;;;;;11.23;100.00;101885.22;5098949;28;20016;-71
2023/02/16 11:47:41;;;;;;;44.97;27.00;;;;;;;11.07;100.00;101882.13;5090806;28;20556;-68
2023/02/16 11:50:22;;;;;;;44.85;26.08;;;;;;;11.46;100.00;101885.91;5080253;28;20062;-69
2023/02/16 11:52:50;;;;;;;47.08;26.80;;;;;;;12.03;100.00;101874.41;5088553;28;20032;-68
2023/02/16 11:55:31;;;;;;;45.63;27.25;;;;;;;12.53;100.00;101873.03;5093123;28;20372;-69